Date,TemperatureHighF,TemperatureAvgF,TemperatureLowF,DewpointHighF,DewpointAvgF,DewpointLowF,HumidityHigh,HumidityAvg,HumidityLow,PressureMaxIn,PressureMinIn,WindSpeedMaxMPH,WindSpeedAvgMPH,GustSpeedMaxMPH,PrecipitationSumIn
2013-6-8,66.2,61.1,61.9,60.6,53.1,-99.9,95,83,77,29.94,29.86,7,-35,0,0.21
2013-6-9,74.3,65.6,57.6,64.2,60.3,57.0,99,84,61,29.93,29.84,12,4,0,0.27
2013-6-10,87.1,66.8,54.7,65.7,60.4,54.4,99,83,46,30.06,29.93,5,1,0,0.00
2013-6-11,88.9,76.1,60.6,72.0,67.3,59.7,99,76,55,30.04,29.85,7,3,0,0.00
2013-6-12,90.9,77.0,64.2,74.3,68.8,57.6,96,77,56,30.02,29.80,13,4,0,0.13
2013-6-13,87.6,72.9,59.2,61.5,56.8,53.9,86,60,33,30.18,30.02,7,2,0,0.00
2013-6-14,74.1,67.3,59.2,65.8,60.8,55.4,95,80,63,30.15,29.90,10,4,0,0.25
2013-6-15,87.6,71.9,63.0,73.9,66.9,62.5,99,85,61,30.05,29.89,9,2,0,0.31
2013-6-16,95.4,76.6,63.7,69.1,59.2,48.9,99,62,23,30.04,29.95,4,2,0,0.00
2013-6-17,91.6,75.0,55.9,64.0,57.2,50.0,98,59,30,30.04,29.94,6,1,0,0.00
2013-6-18,88.3,73.4,58.1,62.8,58.2,52.8,91,62,38,30.07,29.99,5,1,0,0.00
2013-6-19,86.2,74.2,63.7,66.2,61.6,57.1,83,66,42,30.10,29.99,8,4,0,0.00
2013-6-20,89.4,78.9,66.7,68.4,65.2,60.7,81,64,48,30.05,29.92,12,5,0,0.00
2013-6-21,90.7,79.9,73.0,76.0,69.8,63.6,79,72,59,30.01,29.87,16,5,0,0.00
2013-6-22,93.4,82.1,69.6,74.7,69.6,61.5,78,67,53,30.03,29.83,11,4,0,0.00
2013-6-23,83.5,76.6,66.7,70.5,67.8,63.0,91,75,61,29.96,29.80,8,4,0,0.10
2013-6-24,78.4,71.5,66.7,72.5,68.1,64.7,99,90,71,29.98,29.82,7,3,0,1.43
2013-6-25,91.2,78.0,67.8,73.4,70.4,66.2,97,79,53,29.85,29.73,7,3,0,0.00
2013-6-26,95.2,81.5,70.3,77.7,70.6,62.7,93,72,39,29.90,29.68,10,2,0,0.16
2013-6-27,90.1,75.3,63.0,69.9,64.1,58.2,96,71,40,29.99,29.89,7,2,0,0.00
2013-6-28,86.0,75.9,63.9,61.9,58.2,55.3,87,57,36,29.93,29.82,10,4,0,0.00
2013-6-29,79.0,70.0,63.5,62.8,58.1,55.5,82,67,51,29.96,29.80,9,4,0,0.04
2013-6-30,81.3,67.8,54.1,56.4,52.5,44.8,94,62,31,30.14,29.96,7,2,0,0.00
2013-7-1,86.9,69.1,50.9,59.6,53.2,49.4,97,63,33,30.19,30.13,6,2,0,0.00
2013-7-2,87.4,70.0,52.7,62.0,53.9,45.0,98,63,26,30.18,30.03,7,1,0,0.00
2013-7-3,86.0,70.0,53.4,64.3,57.2,52.0,99,68,37,30.09,29.97,6,2,0,0.00
2013-7-4,88.5,75.2,60.6,61.5,59.2,57.1,92,61,39,30.04,29.93,10,3,0,0.00
2013-7-5,90.5,77.2,61.2,64.6,61.0,57.3,87,60,39,29.98,29.88,9,4,0,0.00
2013-7-6,93.2,77.9,66.9,66.7,63.1,59.8,78,62,38,29.94,29.83,9,4,0,0.00
2013-7-7,94.1,82.9,72.5,71.8,67.0,62.6,72,60,44,29.93,29.85,10,4,0,0.00
2013-7-8,92.5,82.5,75.6,75.3,71.4,68.2,85,70,56,29.99,29.91,6,2,0,0.00
2013-7-9,99.1,82.9,73.8,77.0,73.4,70.3,96,75,49,29.98,29.88,8,2,0,0.15
2013-7-10,89.6,75.6,61.2,69.8,60.0,53.4,91,62,31,30.09,29.95,7,2,0,0.00
2013-7-11,87.8,72.1,55.4,60.0,56.8,54.0,97,63,37,30.14,30.02,7,2,0,0.00
2013-7-12,87.8,74.7,62.4,63.9,59.9,56.1,83,62,44,30.09,30.00,9,4,0,0.00
2013-7-13,78.4,72.5,66.6,65.0,60.0,54.9,72,65,60,30.08,30.01,9,4,0,0.00
2013-7-14,89.1,77.0,64.8,65.6,62.4,59.5,83,63,40,30.20,30.07,7,3,0,0.00
2013-7-15,91.0,76.3,60.4,71.8,66.0,58.5,96,73,52,30.26,30.15,11,2,0,0.00
2013-7-16,97.3,84.1,72.7,72.1,70.1,68.5,89,65,43,30.28,30.20,7,2,0,0.00
2013-7-17,98.8,84.8,70.2,73.4,69.7,67.4,95,64,37,30.33,30.18,7,2,0,0.00
2013-7-18,97.0,85.5,74.8,72.3,69.2,67.4,82,61,41,30.20,29.93,11,4,0,0.00
2013-7-19,98.2,84.1,65.7,73.6,66.6,59.9,83,57,35,29.93,29.83,9,3,0,0.01
2013-7-20,95.2,74.9,55.9,65.0,60.6,53.8,96,66,33,29.98,29.86,5,1,0,0.00
2013-7-21,85.6,74.3,64.0,67.6,64.1,60.9,92,72,45,29.93,29.81,8,3,0,0.00
2013-7-22,96.3,77.5,65.1,72.5,67.2,63.1,95,75,42,29.85,29.70,8,3,0,0.92
2013-7-23,84.2,69.7,59.0,66.8,59.8,55.4,96,73,44,30.01,29.81,4,2,0,0.00
2013-7-24,87.8,69.4,53.4,61.1,57.0,52.0,97,68,41,30.10,30.00,4,1,0,0.00
2013-7-25,88.2,73.7,59.0,66.2,61.8,56.0,94,69,46,30.07,29.92,10,3,0,0.00
2013-7-26,79.0,70.3,60.1,65.6,58.4,51.4,95,68,46,30.07,29.94,10,3,0,0.00
2013-7-27,74.3,61.1,50.2,51.6,47.6,44.0,93,64,38,30.12,30.00,10,2,0,0.00
2013-7-28,80.1,63.1,47.1,53.4,48.6,43.7,90,62,39,30.08,30.00,7,2,0,0.00
2013-7-29,73.8,62.7,46.6,58.3,52.6,44.7,97,72,48,30.15,30.07,7,2,0,0.00
2013-7-30,73.0,67.5,62.8,65.4,62.9,57.0,95,85,71,30.09,30.04,6,2,0,0.11
2013-7-31,87.6,73.3,62.6,66.8,63.8,60.0,98,75,48,30.12,30.01,6,1,0,0.00
2013-8-1,88.7,71.8,55.9,65.5,60.1,54.2,96,70,37,30.09,29.90,6,1,0,0.00
2013-8-2,85.3,70.3,62.2,65.4,61.0,56.8,93,75,46,30.03,29.89,4,1,0,0.04
2013-8-3,82.6,69.0,55.2,60.6,56.6,53.1,96,68,41,30.20,30.03,4,1,0,0.00
2013-8-4,84.2,68.9,51.1,59.9,55.5,49.4,96,66,43,30.21,30.04,7,2,0,0.00
2013-8-5,90.1,74.1,63.9,69.9,64.3,56.4,88,73,49,30.04,29.83,7,3,0,0.00
2013-8-6,93.9,77.4,61.7,72.4,66.6,60.3,97,72,45,29.90,29.77,10,2,0,0.00
2013-8-7,82.8,72.3,64.0,67.2,63.1,58.6,94,75,51,30.02,29.80,8,2,0,0.34
2013-8-8,83.3,69.6,54.3,63.7,58.1,51.4,92,69,48,30.06,29.97,4,1,0,0.00
2013-8-9,81.7,71.7,59.9,65.8,60.0,56.0,88,69,45,30.14,30.00,6,1,0,0.00
2013-8-10,85.8,70.0,52.9,62.7,57.7,50.6,94,68,44,30.21,30.09,5,1,0,0.00
2013-8-11,87.8,75.0,63.7,68.0,63.2,57.1,91,68,52,30.14,29.98,7,3,0,0.25
2013-8-12,84.7,72.4,59.0,67.5,62.5,54.9,95,74,41,30.07,29.99,7,2,0,0.39
2013-8-13,80.4,66.2,53.4,62.0,55.7,50.0,94,72,46,30.19,30.07,3,1,0,0.00
2013-8-14,79.7,63.7,47.7,55.3,50.1,45.5,94,66,35,30.25,30.12,7,1,0,0.00
2013-8-15,75.7,65.6,54.3,58.2,53.8,51.1,89,67,49,30.17,30.10,8,2,0,0.00
2013-8-16,81.0,64.5,47.1,58.0,52.7,44.9,94,69,41,30.23,30.15,7,1,0,0.00
2013-8-17,85.3,67.2,49.3,59.0,53.6,47.6,94,66,37,30.25,30.12,6,2,0,0.00
2013-8-18,85.8,76.0,55.2,62.6,59.1,53.5,94,58,42,30.20,30.06,6,3,0,0.00
2013-8-19,86.7,77.1,59.0,68.3,64.2,56.7,92,66,52,30.09,29.96,8,3,0,0.00
2013-8-20,91.2,79.4,68.0,71.7,66.6,60.9,80,66,50,30.00,29.91,12,4,0,0.00
2013-8-21,92.8,80.7,71.2,72.1,68.0,64.6,81,66,51,30.00,29.93,10,4,0,0.00
2013-8-22,90.3,79.2,69.4,71.8,67.8,65.3,87,69,49,30.10,29.99,5,2,0,0.00
2013-8-23,87.6,77.0,66.6,73.9,68.9,64.2,92,77,63,30.13,30.03,9,3,0,0.00
2013-8-24,91.8,79.5,69.8,74.0,69.8,66.1,88,73,55,30.15,30.04,8,4,0,0.00
2013-8-25,96.3,82.6,68.4,74.8,69.4,64.0,87,66,47,30.16,30.05,10,4,0,0.00
2013-8-26,98.4,85.1,72.3,76.8,70.8,67.2,85,64,42,30.10,29.94,10,4,0,0.00
2013-8-27,99.1,85.8,74.5,74.2,71.0,67.2,78,63,44,29.95,29.85,12,4,0,0.00
2013-8-28,101.5,84.2,68.0,73.0,69.1,65.3,92,64,38,30.00,29.91,8,2,0,0.00
2013-8-29,98.1,83.1,68.4,75.0,70.3,65.0,90,68,45,30.04,29.91,11,2,0,0.00
2013-8-30,102.4,84.9,69.8,79.2,72.2,67.0,92,69,39,29.91,29.78,7,2,0,0.00
2013-8-31,95.5,79.9,65.8,72.0,67.6,63.1,91,69,39,29.85,29.76,7,1,0,0.00
2013-9-1,84.6,74.6,61.5,68.6,63.0,55.6,92,69,46,29.98,29.70,10,3,0,0.07
2013-9-2,81.3,66.6,53.8,58.8,54.4,51.1,92,69,37,30.08,29.98,5,2,0,0.00
2013-9-3,88.7,66.7,45.9,58.5,53.8,43.8,94,67,36,30.15,30.01,6,1,0,0.00
2013-9-4,93.7,72.2,55.6,65.2,59.3,53.0,93,69,36,30.15,30.04,7,1,0,0.00
2013-9-5,92.5,77.3,65.7,68.9,65.1,61.8,90,69,39,30.19,30.10,4,1,0,0.00
2013-9-6,92.7,78.9,64.4,67.8,63.6,60.0,93,63,38,30.13,29.93,9,3,0,0.00
2013-9-7,92.3,78.2,70.5,73.1,67.0,60.6,87,69,48,29.95,29.85,8,2,0,0.00
2013-9-8,88.0,75.9,67.6,74.3,69.5,65.5,94,81,64,29.96,29.82,8,2,0,0.00
2013-9-9,101.8,84.2,69.3,70.3,65.9,62.0,94,60,29,29.84,29.76,14,4,0,0.00
2013-9-10,98.1,83.7,67.5,69.0,64.7,59.8,77,55,35,30.00,29.84,10,4,0,0.00
2013-9-11,89.2,76.6,63.9,67.2,63.3,57.6,83,66,42,30.09,29.98,5,1,0,0.00
2013-9-12,80.4,67.5,51.4,57.4,51.1,45.6,86,60,31,30.20,30.06,14,2,0,0.00
2013-9-13,78.1,59.8,42.8,51.3,45.9,40.1,94,65,34,30.27,30.10,5,1,0,0.00
2013-9-14,76.8,62.7,44.1,48.0,44.5,40.3,88,55,32,30.15,29.88,10,3,0,0.00
2013-9-15,70.0,65.8,55.6,60.2,54.2,48.0,81,67,50,30.25,29.84,9,3,0,0.00
2013-9-16,68.0,58.3,49.1,55.8,51.4,47.2,94,79,59,30.39,30.24,6,2,0,0.00
2013-9-17,63.5,57.1,52.3,62.0,54.2,48.9,95,90,80,30.27,29.98,11,3,0,0.38
2013-9-18,91.0,75.4,63.7,72.4,67.0,62.1,95,77,51,29.99,29.71,10,4,0,0.04
2013-9-19,86.4,74.0,64.2,70.3,67.0,62.4,95,80,53,29.85,29.69,10,3,0,0.87
2013-9-20,69.1,59.2,49.3,61.3,51.6,42.4,94,77,56,29.99,29.86,10,3,0,0.00
2013-9-21,79.5,56.8,39.0,49.2,44.3,36.9,95,68,29,30.04,29.89,5,1,0,0.00
2013-9-22,79.5,62.3,46.2,56.6,50.8,43.6,94,69,45,29.98,29.86,9,3,0,0.00
2013-9-23,78.3,63.5,50.4,56.2,50.7,47.1,89,66,41,29.97,29.81,12,4,0,0.00
2013-9-24,78.8,63.3,53.2,61.1,53.4,47.9,87,71,52,29.91,29.85,7,2,0,0.00
2013-9-25,79.7,63.8,45.7,59.6,53.1,43.8,95,71,45,29.96,29.81,7,2,0,0.00
2013-9-26,85.1,70.7,57.9,64.8,58.5,51.8,83,67,47,29.94,29.83,11,4,0,0.00
2013-9-27,88.2,74.6,64.0,66.1,61.2,58.6,83,65,38,29.96,29.85,17,5,0,0.00
2013-9-28,70.3,61.4,44.2,63.9,55.2,41.5,91,80,61,30.04,29.75,9,3,0,0.14
2013-9-29,76.6,58.6,39.6,50.9,44.2,37.7,96,64,33,30.07,29.91,9,3,0,0.00
2013-9-30,77.9,63.5,48.0,55.6,50.0,44.9,92,64,39,29.92,29.71,10,4,0,0.00
2013-10-1,86.4,67.7,50.7,58.2,53.2,43.1,87,64,24,29.98,29.77,6,2,0,0.00
2013-10-2,85.1,69.0,50.4,64.2,56.6,43.7,86,66,38,30.04,29.84,6,2,0,0.00
2013-10-3,83.8,71.7,64.6,67.9,63.1,60.2,94,76,46,29.84,29.74,8,2,0,0.00
2013-10-4,75.0,67.7,62.2,70.5,64.8,60.7,96,91,77,29.88,29.70,13,4,0,1.49
2013-10-5,71.8,55.4,45.9,64.6,43.0,34.7,81,64,45,29.92,29.77,11,4,0,0.00
2013-10-6,49.6,46.7,41.2,46.4,41.6,35.7,94,83,65,29.90,29.72,7,3,0,0.15
2013-10-7,76.8,56.9,38.5,47.5,42.2,36.7,95,65,27,30.03,29.90,7,2,0,0.00
2013-10-8,77.9,61.0,43.9,48.9,45.7,40.9,92,61,33,30.06,29.95,10,4,0,0.00
2013-10-9,76.3,61.8,49.1,53.0,48.5,45.7,89,64,37,30.11,30.01,8,3,0,0.00
2013-10-10,78.8,62.0,46.9,57.0,49.0,43.1,88,66,37,30.07,29.88,9,3,0,0.00
2013-10-11,73.0,64.0,54.0,63.5,56.7,49.0,88,77,68,29.90,29.71,12,4,0,0.00
2013-10-12,69.1,55.9,39.4,52.5,39.2,31.4,81,57,27,30.26,29.81,11,3,0,0.00
2013-10-13,69.8,49.6,29.7,41.0,33.5,26.9,93,60,28,30.46,30.27,4,1,0,0.00
2013-10-14,64.4,55.1,34.0,45.5,38.0,31.4,90,55,37,30.36,29.85,12,6,0,0.01
2013-10-15,57.9,50.6,46.9,56.2,45.3,41.4,94,82,73,29.92,29.75,11,6,0,0.44
2013-10-16,51.3,45.4,34.7,43.4,40.3,31.5,93,83,71,30.01,29.92,9,3,0,0.00
2013-10-17,62.4,45.8,35.8,42.0,38.0,34.0,94,77,39,29.96,29.84,7,2,0,0.00
2013-10-18,52.5,42.7,36.1,36.4,31.6,28.3,86,67,40,30.04,29.95,5,3,0,0.00
2013-10-19,58.1,44.5,33.8,38.4,33.4,29.1,83,66,41,29.95,29.77,11,3,0,0.00
2013-10-20,64.2,48.5,38.8,44.0,36.8,30.3,76,65,42,29.94,29.69,8,3,0,0.00
2013-10-21,51.3,39.5,29.3,33.7,27.7,24.1,87,65,38,30.07,29.95,11,3,0,0.00
2013-10-22,41.5,37.7,35.1,37.2,33.1,28.5,94,84,72,30.07,29.88,7,2,0,0.22
2013-10-23,43.2,36.0,26.1,35.9,30.2,23.3,93,80,56,30.15,30.06,7,2,0,0.04
2013-10-24,47.8,36.8,28.2,31.7,27.9,22.6,90,71,51,30.36,30.15,6,2,0,0.00
2013-10-25,57.6,47.5,21.0,33.7,30.4,18.3,91,53,38,30.40,30.01,14,6,0,0.00
2013-10-26,53.8,44.8,31.5,33.5,29.9,25.5,79,57,38,30.14,29.94,11,4,0,0.00
2013-10-27,64.2,50.7,24.3,36.3,33.4,22.3,92,55,35,30.02,29.83,10,3,0,0.01
2013-10-28,52.3,45.6,37.2,39.2,35.6,31.9,85,68,58,30.29,30.12,7,4,0,0.00
2013-10-29,55.9,50.0,39.4,47.3,42.3,33.8,80,75,66,30.22,30.01,8,4,0,0.00
2013-10-30,66.4,55.8,50.7,58.1,52.9,46.5,96,90,74,30.01,29.64,13,4,0,0.52
2013-10-31,55.2,45.4,40.5,53.8,42.4,38.4,95,89,79,29.65,29.44,8,3,0,0.00
2013-11-1,56.8,47.1,39.4,41.2,39.1,36.1,88,75,52,29.87,29.49,11,4,0,0.00
2013-11-2,56.8,44.5,30.9,39.6,35.3,28.1,92,72,41,30.13,29.88,8,2,0,0.00
2013-11-3,56.3,44.2,30.4,38.1,33.1,27.8,95,68,41,30.15,29.90,14,6,0,0.00
2013-11-4,55.4,48.5,35.8,46.9,41.8,32.3,88,78,61,30.11,29.89,9,5,0,0.10
2013-11-5,50.5,44.7,36.1,49.1,42.9,34.5,96,93,81,30.19,29.77,8,3,0,1.03
2013-11-6,46.9,36.9,27.0,37.4,30.0,22.6,95,78,44,30.26,29.85,10,4,0,0.00
2013-11-7,48.2,35.5,25.5,36.0,27.9,21.1,94,76,40,30.32,30.24,7,2,0,0.00
2013-11-8,59.0,49.5,21.9,38.3,34.1,18.1,85,56,42,30.29,29.73,16,6,0,0.00
2013-11-9,58.3,48.6,36.5,39.2,36.0,30.6,79,62,45,30.27,29.82,10,5,0,0.00
2013-11-10,48.4,43.2,29.1,32.9,30.3,25.2,85,61,51,30.43,30.15,8,3,0,0.00
2013-11-11,45.5,30.3,14.7,33.1,23.4,9.7,86,76,61,30.73,30.08,8,4,0,0.00
2013-11-12,32.5,19.1,8.1,15.0,10.2,4.5,85,69,42,30.87,30.57,6,2,0,0.00
2013-11-13,52.2,35.4,18.5,27.6,18.8,10.9,73,52,38,30.57,30.01,12,6,0,0.00
2013-11-14,53.2,42.4,33.6,31.0,25.9,20.3,76,53,40,30.01,29.86,9,3,0,0.00
2013-11-15,55.8,40.9,24.1,38.3,31.3,21.4,92,71,48,29.90,29.69,6,2,0,0.00
2013-11-16,66.4,52.0,40.6,57.1,46.3,34.6,91,81,71,29.69,29.26,10,4,0,0.01
2013-11-17,51.4,45.0,38.3,44.1,40.0,33.6,92,83,71,29.93,29.28,9,3,0,0.27
2013-11-18,48.0,35.6,23.7,34.4,29.0,21.2,92,78,54,30.26,29.93,8,3,0,0.00
2013-11-19,53.4,39.4,23.0,36.2,30.4,20.5,95,72,48,30.27,29.99,13,6,0,0.00
2013-11-20,45.0,40.7,37.6,36.1,33.5,28.2,91,76,56,30.02,29.88,12,6,0,0.00
2013-11-21,37.8,31.0,23.7,36.5,28.9,22.0,95,92,85,30.46,30.01,9,4,0,0.00
2013-11-22,27.9,18.5,5.9,21.5,13.2,2.4,93,80,57,30.65,30.47,8,3,0,0.00
2013-11-23,19.8,10.6,-1.8,10.9,2.9,-5.9,84,71,57,30.85,30.62,6,2,0,0.00
2013-11-24,28.6,14.6,-3.5,12.1,4.9,-8.1,86,67,44,30.78,30.25,18,4,0,0.00
2013-11-25,39.6,28.9,20.7,30.1,22.2,12.1,90,76,59,30.25,30.07,10,4,0,0.05
2013-11-26,29.7,23.7,14.7,24.3,14.4,7.9,89,68,47,30.38,30.13,11,4,0,0.00
2013-11-27,25.5,17.4,5.0,14.5,8.9,0.7,84,69,52,30.41,30.06,7,3,0,0.00
2013-11-28,34.5,23.2,9.1,20.0,14.6,4.7,86,70,53,30.53,30.05,6,2,0,0.00
2013-11-29,37.8,22.4,4.6,25.4,15.5,0.3,88,75,59,30.55,30.19,9,3,0,0.00
2013-11-30,51.4,34.1,23.4,35.3,26.6,20.4,88,75,54,30.18,30.03,7,2,0,0.00
2013-12-1,42.4,33.3,22.5,31.9,27.4,19.5,88,79,66,30.17,29.90,5,1,0,0.00
2013-12-2,46.4,37.8,32.7,38.6,32.3,27.8,88,81,73,29.90,29.53,11,4,0,0.00
2013-12-3,39.0,36.5,32.9,37.2,35.1,31.2,96,94,88,29.65,29.53,5,1,0,0.00
2013-12-4,38.1,29.7,17.1,37.3,28.1,13.4,97,93,85,29.90,29.49,14,4,0,0.06
2013-12-5,18.1,12.1,5.7,12.7,5.7,-0.8,84,75,67,30.41,29.90,12,5,0,0.00
2013-12-6,13.8,5.6,-1.1,2.9,-1.9,-6.5,81,71,59,30.69,30.41,6,3,0,0.00
2013-12-7,13.3,4.0,-6.7,0.8,-3.9,-10.5,84,70,51,30.77,30.54,6,2,0,0.00
2013-12-8,19.8,14.6,10.0,15.8,9.7,0.6,89,81,65,30.53,29.99,9,4,0,0.00
2013-12-9,12.0,3.4,-2.9,8.6,-2.7,-6.8,87,76,57,30.28,30.06,9,4,0,0.00
2013-12-10,20.5,16.0,3.4,14.9,8.2,-3.6,87,71,58,30.20,29.97,16,4,0,0.00
2013-12-11,18.1,5.9,-5.1,15.2,-1.3,-8.9,88,72,52,30.64,30.21,6,3,0,0.00
2013-12-12,29.1,16.0,1.6,18.0,9.0,-4.5,86,74,62,30.48,30.12,7,2,0,0.00
2013-12-13,32.2,21.3,13.6,23.5,16.7,10.7,88,82,70,30.11,29.96,9,3,0,0.02
2013-12-14,22.6,18.3,10.6,18.5,13.7,6.2,87,82,70,30.16,30.08,6,3,0,0.00
2013-12-15,18.0,12.8,7.2,8.9,7.0,3.4,84,77,64,30.15,30.02,6,2,0,0.00
2013-12-16,26.2,18.2,11.5,21.2,14.0,7.4,87,84,79,30.10,29.97,7,3,0,0.00
2013-12-17,37.2,27.8,16.7,28.1,20.3,11.9,90,75,50,30.19,30.07,10,4,0,0.02
2013-12-18,48.7,30.4,14.4,34.2,23.1,9.9,93,75,56,30.16,29.71,12,3,0,0.00
2013-12-19,36.1,28.8,23.2,29.6,25.3,21.5,95,87,76,29.88,29.75,7,2,0,0.00
2013-12-20,26.1,23.0,19.9,24.1,20.5,16.9,92,90,88,29.89,29.82,5,2,0,0.00
2013-12-21,24.4,21.4,16.0,21.6,18.3,13.3,89,88,85,29.91,29.79,7,2,0,0.00
2013-12-22,24.4,17.0,3.7,21.9,13.0,-0.5,92,84,70,30.36,29.80,7,4,0,0.00
2013-12-23,11.5,0.4,-10.1,-0.6,-7.7,-16.1,82,69,51,30.58,30.36,7,3,0,0.00
2013-12-24,14.9,0.1,-16.4,11.0,-6.3,-20.7,84,74,51,30.58,30.23,10,4,0,0.00
2013-12-25,33.6,23.6,15.1,28.1,19.5,11.2,88,84,80,30.28,30.17,8,4,0,0.00
2013-12-26,38.5,27.7,18.5,27.9,21.8,14.8,88,79,64,30.25,30.11,7,2,0,0.11
2013-12-27,47.8,31.3,13.8,32.2,24.5,11.7,95,77,53,30.27,30.06,10,2,0,0.04
2013-12-28,51.3,37.2,22.1,34.6,28.8,17.5,89,73,51,30.10,29.77,10,4,0,0.00
2013-12-29,20.1,6.5,-3.3,15.2,-2.3,-12.7,82,67,45,30.33,29.99,13,5,0,0.00
2013-12-30,10.8,3.2,-5.4,6.7,-2.7,-12.8,85,76,64,30.33,30.12,7,2,0,0.00
2013-12-31,11.1,6.0,-2.6,4.8,1.4,-6.5,85,81,74,30.30,30.18,6,2,0,0.00
2014-1-1,10.9,6.2,3.7,3.6,1.0,-1.3,84,78,71,30.38,30.22,7,4,0,0.00
2014-1-2,11.3,1.8,-11.2,0.2,-5.0,-15.6,83,73,55,30.48,30.35,6,3,0,0.00